Airfield :
LOGIN :

Register | Disclaimer

   EN    FR    IT 

 










Legend :    VFR   Marginal VFR   IFR   Intensive IFR   Very Intensive IFR
Visi :
Ceiling :
>= 8 km
>= 3000ft
5 to 8 km
1000 to 3000 ft
1500m to 5 km
500 to 1000 ft
800 to 1500m
200 to 500 ft
< 800m
< 200 ft
Symbols :   Thunderstorms  Fog  Heavy snow  Heavy precipitations  Wind > 20 kt
SIGMETs :     Misc.  Thunderstorms  Icing  Turbulence  Mountain Waves  Volcanic Ashes







- Airport Elevation : 38 ft
- IATA code : TRE
- Download approach charts


EGPU - Tiree

CURRENT METAR :
  • 201750Z 05013KT 9999 FEW027 06/02 Q1020

EXPIRED METARs :
  • 201720Z AUTO 05015KT 9999 NCD 06/02 Q1020
  • 201650Z 05015KT 9999 FEW028 06/02 Q1020
  • 201620Z AUTO 05017KT 9999 NCD 06/02 Q1020
  • 201550Z AUTO 05015KT 9999 NCD 06/02 Q1020
  • 201520Z AUTO 05014KT 9999 NCD 07/03 Q1021

TAF TAF EGPU
Valid from the 20 at 15:00 until the 20 at 19:00 UTC


201359Z 2015/2019 06014KT 9999 FEW030
PROB30
TEMPO 2015/2019 09017G27KT
No reported NOTAMs for that airfield.
1 SIGMET reported for the Scottish FIR (EGPX) :
 
Severe mountain waves
EGPX SIGMET 03 VALID 201700/202100 EGRR
EGPX SCOTTISH FIR SEV MTW FCST WI N5500 W00525 - N5703 W00536 - N5709 W00355 - N5500 W00218 - N5500 W00525 FL030/120 STNR NC=



MET'MAP, your aeronautical weather chart ! - Copyright ORBIFLY December 2007 - Disclaimer

ORBIFLY MET'MAP TEAM :

Programming & Development : Alexandra Zaïnal
Concept & Development : Baudouin d'Aumeries
Co-Development & Prog : Marc-Olivier Méhu
Technical & hardware support : Manuel Goepfert

Contact : metmap@orbifly.com




SOURCES & CREDITS :

   NOAA